createdAt,value
2023-09-30T07:13:19.848Z,17.60
2023-09-30T07:56:32.664Z,17.70
2023-09-30T07:59:04.226Z,17.90
2023-09-30T08:05:19.768Z,18.30
2023-09-30T08:07:24.418Z,18.40
2023-09-30T08:08:49.896Z,18.30
2023-09-30T08:10:14.508Z,18.30
2023-09-30T08:12:01.451Z,18.40
2023-09-30T08:18:54.220Z,18.40
2023-09-30T08:20:38.869Z,18.40
2023-09-30T08:22:07.935Z,18.50
2023-09-30T08:25:32.560Z,18.60
2023-09-30T08:27:09.406Z,18.70
2023-09-30T08:28:50.443Z,18.80
2023-09-30T08:32:52.238Z,18.90
2023-09-30T08:38:00.516Z,18.90
2023-09-30T08:42:31.116Z,18.80
2023-09-30T08:44:00.912Z,18.80
2023-09-30T08:45:34.979Z,18.80
2023-09-30T08:47:01.896Z,18.70
2023-09-30T08:50:15.310Z,18.70
2023-09-30T08:52:07.607Z,18.70
2023-09-30T08:53:46.077Z,18.70
2023-09-30T08:58:01.955Z,18.60
2023-09-30T09:02:01.448Z,18.60
2023-09-30T09:03:45.042Z,18.50
2023-09-30T09:07:38.832Z,18.40
2023-09-30T09:09:16.827Z,18.50
2023-09-30T09:11:08.132Z,18.40
2023-09-30T09:13:00.636Z,18.30
2023-09-30T09:14:47.693Z,18.20
2023-09-30T09:16:16.786Z,18.20
2023-09-30T09:19:28.724Z,18.10
2023-09-30T09:26:28.191Z,17.90
2023-09-30T09:27:51.293Z,17.80
2023-09-30T09:29:17.219Z,17.70
2023-09-30T09:30:42.523Z,17.70
2023-09-30T09:32:30.648Z,17.70
2023-09-30T09:33:55.098Z,17.80
2023-09-30T09:35:23.152Z,17.80
2023-09-30T09:36:50.005Z,17.70
2023-09-30T09:38:20.620Z,17.80
2023-09-30T09:39:53.573Z,17.70
2023-09-30T09:41:16.663Z,17.80
2023-09-30T09:42:40.341Z,17.80
2023-09-30T09:44:04.216Z,17.80
2023-09-30T09:45:36.556Z,17.80
2023-09-30T09:47:20.082Z,17.90
2023-09-30T09:48:53.237Z,17.90
2023-09-30T09:50:21.831Z,17.90
2023-09-30T09:51:48.773Z,18.00
2023-09-30T09:53:14.259Z,18.00
2023-09-30T09:54:40.107Z,18.10
2023-09-30T09:56:05.434Z,18.10
2023-09-30T09:57:33.682Z,18.10
2023-09-30T09:58:59.009Z,18.10
2023-09-30T10:00:25.367Z,18.20
2023-09-30T10:01:52.460Z,18.20
2023-09-30T10:03:30.849Z,18.30
2023-09-30T10:04:54.658Z,18.30
2023-09-30T10:06:22.542Z,18.50
2023-09-30T10:07:53.076Z,18.50
2023-09-30T10:09:19.503Z,18.60
2023-09-30T10:10:43.820Z,18.60
2023-09-30T10:12:10.312Z,18.70
2023-09-30T10:13:52.172Z,18.70
2023-09-30T10:15:34.552Z,18.60
2023-09-30T10:16:57.790Z,18.70
2023-09-30T10:18:24.153Z,18.80
2023-09-30T10:20:21.466Z,18.90
2023-09-30T10:22:18.367Z,18.90
2023-09-30T10:23:42.802Z,18.90
2023-09-30T10:25:36.996Z,18.90
2023-09-30T10:27:38.609Z,18.90
2023-09-30T10:29:10.831Z,18.60
2023-09-30T10:30:36.767Z,18.40
2023-09-30T10:32:00.159Z,18.20
2023-09-30T10:33:24.426Z,18.10
2023-09-30T10:34:54.686Z,18.10
2023-09-30T10:36:33.005Z,18.10
2023-09-30T10:38:38.092Z,18.10
2023-09-30T10:40:05.097Z,18.00
2023-09-30T10:41:54.399Z,18.00
2023-09-30T10:43:00.422Z,18.00
2023-09-30T10:44:40.756Z,18.00
2023-09-30T10:46:08.356Z,18.10
2023-09-30T10:47:37.546Z,18.30
2023-09-30T10:49:18.650Z,18.80
2023-09-30T10:50:55.621Z,19.00
2023-09-30T10:52:24.166Z,19.10
2023-09-30T10:53:49.588Z,19.20
2023-09-30T10:55:20.488Z,19.20
2023-09-30T10:56:43.279Z,19.30
2023-09-30T10:58:06.058Z,19.40
2023-09-30T10:59:33.311Z,19.30
2023-09-30T11:00:57.118Z,19.40
2023-09-30T11:02:31.909Z,19.50
2023-09-30T11:04:10.453Z,19.50
2023-09-30T11:05:59.241Z,19.50
2023-09-30T11:07:28.342Z,19.50
2023-09-30T11:08:57.111Z,19.80
2023-09-30T11:10:28.717Z,20.20
2023-09-30T11:11:55.382Z,20.80
2023-09-30T11:13:18.926Z,21.50
2023-09-30T11:14:46.746Z,22.60
2023-09-30T11:50:01.768Z,23.20
2023-09-30T11:51:25.596Z,21.30
2023-09-30T11:55:32.761Z,20.80
2023-09-30T11:56:56.378Z,22.50
2023-09-30T11:58:21.594Z,23.60
2023-09-30T11:59:46.690Z,24.20
2023-09-30T12:01:13.639Z,24.30
2023-09-30T12:03:05.061Z,24.70
2023-09-30T12:04:35.682Z,25.30
2023-09-30T12:06:02.243Z,25.50
2023-09-30T12:07:31.651Z,25.70
2023-09-30T12:09:56.240Z,26.30
2023-09-30T12:11:20.914Z,26.60
2023-09-30T12:12:45.873Z,27.90
2023-09-30T12:14:11.150Z,28.70
2023-09-30T12:15:35.688Z,28.70
2023-09-30T12:16:58.364Z,29.10
2023-09-30T12:18:25.693Z,29.30
2023-09-30T12:19:51.814Z,29.00
2023-09-30T12:21:23.217Z,28.00
2023-09-30T12:22:47.559Z,27.30
2023-09-30T12:24:10.747Z,26.60
2023-09-30T12:25:40.126Z,25.50
2023-09-30T12:27:21.980Z,24.60
2023-09-30T12:28:45.288Z,23.90
2023-09-30T12:30:15.154Z,23.10
2023-09-30T12:31:52.369Z,22.80
2023-09-30T12:33:16.043Z,22.50
2023-09-30T12:34:40.710Z,22.00
2023-09-30T12:36:43.175Z,21.90
2023-09-30T12:38:05.949Z,21.50
2023-09-30T12:39:37.118Z,20.90
2023-09-30T12:41:07.994Z,20.70
2023-09-30T12:42:40.991Z,20.40
2023-09-30T12:44:05.150Z,20.20
2023-09-30T12:45:36.067Z,20.10
2023-09-30T12:47:00.414Z,20.10
2023-09-30T12:48:26.003Z,20.20
2023-09-30T12:49:55.206Z,20.10
2023-09-30T12:51:48.733Z,19.80
2023-09-30T12:53:16.507Z,19.50
2023-09-30T12:54:53.907Z,19.40
2023-09-30T12:56:17.960Z,19.30
2023-09-30T12:58:07.201Z,19.20
2023-09-30T12:59:30.811Z,19.10
2023-09-30T13:01:01.997Z,19.00
2023-09-30T13:02:46.777Z,18.90
2023-09-30T13:04:10.264Z,18.90
2023-09-30T13:05:32.875Z,18.90
2023-09-30T13:06:58.389Z,19.10
2023-09-30T13:08:28.737Z,19.50
2023-09-30T13:09:57.892Z,19.60
2023-09-30T13:18:08.107Z,18.70
2023-09-30T13:19:30.699Z,18.70
2023-09-30T13:20:56.728Z,18.80
2023-09-30T13:22:21.134Z,18.80
2023-09-30T13:23:44.081Z,18.80
2023-09-30T13:25:07.403Z,18.90
2023-09-30T13:26:31.651Z,19.00
2023-09-30T13:28:00.236Z,19.00
2023-09-30T13:29:23.270Z,19.10
2023-09-30T13:30:48.822Z,19.10
2023-09-30T13:32:13.317Z,19.10
2023-09-30T13:33:37.703Z,19.10
2023-09-30T13:35:03.326Z,19.20
2023-09-30T13:36:27.376Z,19.20
2023-09-30T13:37:50.220Z,19.30
2023-09-30T13:39:14.861Z,19.30
2023-09-30T13:40:39.236Z,19.20
2023-09-30T13:42:03.763Z,19.10
2023-09-30T13:43:28.185Z,19.10
2023-09-30T13:44:51.803Z,19.00
2023-09-30T13:46:18.817Z,19.00
2023-09-30T13:47:47.689Z,19.00
2023-09-30T13:49:14.510Z,18.90
2023-09-30T13:50:42.907Z,18.80
2023-09-30T13:52:09.253Z,18.80
2023-09-30T13:53:35.248Z,18.70
2023-09-30T13:55:02.065Z,18.70
2023-09-30T13:56:32.160Z,18.60
2023-09-30T13:57:57.872Z,18.60
2023-09-30T13:59:23.998Z,18.50
2023-09-30T14:00:53.469Z,18.60
2023-09-30T14:02:24.080Z,18.50
2023-09-30T14:04:56.662Z,18.30
2023-09-30T14:06:22.463Z,18.30
2023-09-30T14:07:45.288Z,18.30
2023-09-30T14:09:21.691Z,18.30
2023-09-30T14:10:52.582Z,18.30
2023-09-30T14:12:15.424Z,18.30
2023-09-30T14:13:43.873Z,18.40
2023-09-30T14:15:07.771Z,18.30
2023-09-30T14:16:33.922Z,18.40
2023-09-30T14:18:03.697Z,18.50
2023-09-30T14:19:32.390Z,18.50
2023-09-30T14:20:58.475Z,18.40
2023-09-30T14:22:24.727Z,18.30
2023-09-30T14:23:51.178Z,18.30
2023-09-30T14:25:14.023Z,18.20
2023-09-30T14:26:40.676Z,18.10
2023-09-30T14:28:24.647Z,18.10
2023-09-30T14:30:00.049Z,18.20
2023-09-30T14:36:34.742Z,18.00
2023-09-30T14:41:17.699Z,18.00
2023-09-30T14:42:43.867Z,17.90
2023-09-30T14:44:15.076Z,18.00
2023-09-30T14:45:54.226Z,18.00
2023-09-30T14:47:18.236Z,18.00
2023-09-30T14:48:47.156Z,18.00
2023-09-30T14:50:20.454Z,18.00
2023-09-30T14:51:59.579Z,18.00
2023-09-30T14:53:24.224Z,18.00
2023-09-30T14:54:49.158Z,18.00
2023-09-30T14:56:25.597Z,18.00
2023-09-30T14:57:49.300Z,17.90
2023-09-30T14:59:13.041Z,17.90
2023-09-30T15:00:35.886Z,17.80
2023-09-30T15:03:40.725Z,17.80
2023-09-30T15:05:07.351Z,17.60
2023-09-30T15:06:38.363Z,17.70
2023-09-30T15:08:12.273Z,17.60
2023-09-30T15:09:37.674Z,17.50
2023-09-30T15:11:00.823Z,17.50
2023-09-30T15:12:31.160Z,17.40
2023-09-30T15:14:01.303Z,17.40
2023-09-30T15:15:27.797Z,17.40
2023-09-30T15:16:59.320Z,17.40
2023-09-30T15:18:24.713Z,17.40
2023-09-30T15:19:52.334Z,17.30
2023-09-30T15:21:15.684Z,17.30
2023-09-30T15:24:33.016Z,17.20
2023-09-30T15:26:04.954Z,17.20
2023-09-30T15:27:28.027Z,17.20
2023-09-30T15:28:52.788Z,17.10
2023-09-30T15:30:18.661Z,17.20
2023-09-30T15:31:43.646Z,17.10
2023-09-30T15:33:09.183Z,17.10
2023-09-30T15:34:33.938Z,17.10
2023-09-30T15:36:08.106Z,17.10
2023-09-30T15:37:37.234Z,17.10
2023-09-30T15:39:07.606Z,17.00
2023-09-30T15:40:36.142Z,17.00
2023-09-30T15:42:06.045Z,16.90
2023-09-30T15:43:31.207Z,16.90
2023-09-30T15:44:57.658Z,16.90
2023-09-30T15:46:23.676Z,16.90
2023-09-30T15:48:16.576Z,16.90
2023-09-30T15:49:44.511Z,16.90
2023-09-30T15:52:09.778Z,16.80
2023-09-30T15:53:44.296Z,16.80
2023-09-30T15:55:07.889Z,16.80
2023-09-30T15:56:38.851Z,16.80
2023-09-30T15:58:11.962Z,16.80
2023-09-30T15:59:38.120Z,16.70
2023-09-30T16:01:01.637Z,16.70
2023-09-30T16:02:24.905Z,16.60
2023-09-30T16:03:52.925Z,16.60
2023-09-30T16:05:16.249Z,16.60
2023-09-30T16:06:46.379Z,16.60
2023-09-30T16:09:12.000Z,16.50
2023-09-30T16:10:35.670Z,16.60
2023-09-30T16:12:04.099Z,16.50
2023-09-30T16:13:26.805Z,16.50
2023-09-30T16:14:49.526Z,16.50
2023-09-30T16:16:20.047Z,16.50
2023-09-30T16:18:12.108Z,16.40
2023-09-30T16:19:55.768Z,16.40
2023-09-30T16:21:19.452Z,16.30
2023-09-30T16:22:43.383Z,16.30
2023-09-30T16:30:01.883Z,16.10
2023-09-30T16:37:23.719Z,15.80
2023-09-30T16:45:22.760Z,15.60
2023-09-30T18:09:16.857Z,14.40
2023-09-30T18:18:54.508Z,14.30
2023-09-30T18:59:34.337Z,14.20
2023-09-30T19:36:51.791Z,13.80
2023-09-30T19:38:15.237Z,13.80
2023-09-30T19:40:01.354Z,13.70
2023-09-30T19:42:06.457Z,13.80
2023-09-30T19:43:36.333Z,13.80
2023-09-30T20:01:14.584Z,13.70
2023-09-30T20:05:27.143Z,13.70
2023-09-30T20:18:02.197Z,13.60
2023-09-30T21:10:29.213Z,13.30
2023-09-30T22:22:55.423Z,13.00
2023-09-30T22:41:48.922Z,12.90
2023-09-30T22:53:59.788Z,12.90
2023-09-30T23:14:08.370Z,13.10
2023-09-30T23:16:24.100Z,13.20
2023-09-30T23:18:24.901Z,13.20
2023-09-30T23:20:30.819Z,13.10
2023-09-30T23:24:29.427Z,13.10
2023-09-30T23:26:21.864Z,13.20
